Campo Grande, Argentina
Current Conditions -  °F | °C
As of 7:00 PM on Thursday 18 Dec 2014 (Local Time) from SARC Reporting Station
Clear Clear  
Wind Chill: 86°   Ceiling: Unl
Heat Index: 89°   Visibility: 6mi
Dew Point: 68°   Wind: 6mph
Humidity: 55%   Direction: 140°SE
Pressure: 29.77"   Gusts: NA
Location:  27.52°S, 58.3°W
Report Text: SARC 182200Z 14005KT CAVOK 30/20 Q1008
Loading
Personal Weather Stations






























Interactive Weather Map New forecast layout! Learn more

10-Day Weather Forecast

Advertisements
Track Severe Weather on mobile